Time;durP1;ratioP1;P1;durP2;ratioP2;P2;SDS_P1;SDS_P2;PMS_P1;PMS_P2;Temp;Humidity;BMP_temperature;BMP_pressure;BME280_temperature;BME280_humidity;BME280_pressure;Samples;Min_cycle;Max_cycle;Signal;HPM_P1;HPM_P2
2023/03/16 00:01:02;;;;;;;7.63;4.65;;;7.00;99.90;;;;;;4803577;29;20046;-59
2023/03/16 00:03:30;;;;;;;10.48;5.90;;;7.00;99.90;;;;;;4808551;29;20054;-59
2023/03/16 00:05:57;;;;;;;9.65;5.95;;;7.00;99.90;;;;;;4817104;29;20061;-59
2023/03/16 00:08:26;;;;;;;9.13;5.50;;;7.10;99.90;;;;;;4819224;29;20057;-59
2023/03/16 00:10:54;;;;;;;10.85;6.07;;;7.10;99.90;;;;;;4818189;29;20512;-58
2023/03/16 00:13:23;;;;;;;9.30;5.60;;;7.10;99.90;;;;;;4822278;29;20050;-58
2023/03/16 00:15:54;;;;;;;8.80;5.68;;;7.10;99.90;;;;;;4814512;29;20411;-59
2023/03/16 00:18:26;;;;;;;11.98;5.50;;;7.10;99.90;;;;;;4818181;29;20061;-56
2023/03/16 00:20:58;;;;;;;11.02;5.97;;;7.20;99.90;;;;;;4810844;29;20065;-56
2023/03/16 00:23:26;;;;;;;11.40;5.35;;;7.10;99.90;;;;;;4821394;29;20046;-56
2023/03/16 00:25:58;;;;;;;9.23;5.85;;;7.20;99.90;;;;;;4829361;29;20545;-55
2023/03/16 00:28:27;;;;;;;9.07;4.63;;;7.20;99.90;;;;;;4820168;29;20053;-56
2023/03/16 00:30:58;;;;;;;6.38;4.47;;;7.20;99.90;;;;;;4812942;29;20050;-57
2023/03/16 00:33:27;;;;;;;7.30;4.80;;;7.30;99.90;;;;;;4805427;29;20047;-56
2023/03/16 00:36:03;;;;;;;7.13;5.25;;;7.30;99.90;;;;;;4802420;29;20072;-56
2023/03/16 00:38:34;;;;;;;5.75;4.18;;;10.20;99.90;;;;;;4807880;29;20431;-56
2023/03/16 00:41:02;;;;;;;;;;;7.30;99.90;;;;;;4821725;29;20577;-55
2023/03/16 00:43:39;;;;;;;4.95;3.55;;;7.40;99.90;;;;;;4817555;29;19929;-56
2023/03/16 00:46:10;;;;;;;5.32;3.25;;;7.40;99.90;;;;;;4822732;29;20051;-57
2023/03/16 00:48:41;;;;;;;;;;;7.40;99.90;;;;;;4805660;29;20138;-56
2023/03/16 00:51:12;;;;;;;4.03;3.20;;;7.40;99.90;;;;;;4808918;29;19980;-56
2023/03/16 00:53:42;;;;;;;5.70;3.63;;;7.40;99.90;;;;;;4809697;29;20058;-56
2023/03/16 00:56:13;;;;;;;7.43;4.18;;;7.40;99.90;;;;;;4814890;29;20065;-56
2023/03/16 00:58:42;;;;;;;7.53;4.68;;;7.40;99.90;;;;;;4822858;29;20050;-57
2023/03/16 01:01:12;;;;;;;;;;;7.40;99.90;;;;;;4816274;29;20074;-56
2023/03/16 01:03:40;;;;;;;5.00;3.65;;;7.40;99.90;;;;;;4813190;29;19945;-57
2023/03/16 01:06:15;;;;;;;7.50;3.80;;;7.50;99.90;;;;;;4790134;29;20495;-57
2023/03/16 01:08:44;;;;;;;7.63;4.18;;;;;;;;;;4814457;29;20399;-57
2023/03/16 01:11:17;;;;;;;7.72;4.32;;;7.50;99.90;;;;;;4808640;29;20055;-57
2023/03/16 01:13:53;;;;;;;6.63;4.07;;;7.50;99.90;;;;;;4829751;29;20058;-57
2023/03/16 01:16:23;;;;;;;10.43;5.15;;;7.50;99.90;;;;;;4817004;29;20058;-57
2023/03/16 01:18:52;;;;;;;10.63;5.72;;;7.50;99.90;;;;;;4811675;29;20051;-58
2023/03/16 01:21:20;;;;;;;11.77;4.93;;;7.50;99.90;;;;;;4796755;29;20063;-57
2023/03/16 01:23:51;;;;;;;9.13;4.53;;;7.60;99.90;;;;;;4821290;29;20042;-56
2023/03/16 01:26:21;;;;;;;8.32;4.63;;;7.60;99.90;;;;;;4815537;29;20062;-56
2023/03/16 01:28:49;;;;;;;10.70;5.88;;;7.60;99.90;;;;;;4826965;29;20049;-59
2023/03/16 01:31:17;;;;;;;10.63;5.95;;;7.60;99.90;;;;;;4804606;29;20122;-57
2023/03/16 01:33:45;;;;;;;10.40;6.05;;;7.60;99.90;;;;;;4805977;29;20042;-57
2023/03/16 01:36:19;;;;;;;10.75;6.65;;;7.70;99.90;;;;;;4813617;29;20073;-56
2023/03/16 01:38:53;;;;;;;11.50;6.63;;;7.70;99.90;;;;;;4823130;29;20073;-56
2023/03/16 01:41:24;;;;;;;13.48;7.57;;;7.80;99.90;;;;;;4805399;29;20057;-59
2023/03/16 01:43:57;;;;;;;10.73;6.85;;;7.70;99.90;;;;;;4821030;29;20046;-56
2023/03/16 01:46:28;;;;;;;14.38;7.45;;;7.80;99.90;;;;;;4828082;29;20399;-58
2023/03/16 01:49:05;;;;;;;11.13;6.95;;;7.80;99.90;;;;;;4825098;29;20380;-55
2023/03/16 01:51:42;;;;;;;13.98;7.28;;;7.80;99.90;;;;;;4816742;29;20054;-56
2023/03/16 01:54:41;;;;;;;14.88;8.10;;;7.80;99.90;;;;;;4822888;29;20054;-55
2023/03/16 01:57:18;;;;;;;14.80;8.02;;;7.90;99.90;;;;;;4812990;29;20058;-58
2023/03/16 02:00:14;;;;;;;14.52;7.88;;;7.90;99.90;;;;;;4811076;29;20047;-59
2023/03/16 02:02:49;;;;;;;14.40;7.55;;;8.00;99.90;;;;;;4817301;29;20038;-56
2023/03/16 02:05:35;;;;;;;16.10;8.07;;;8.00;99.90;;;;;;4822500;29;20050;-56
2023/03/16 02:08:05;;;;;;;17.80;10.27;;;8.00;99.90;;;;;;4824720;29;20052;-56
2023/03/16 02:10:34;;;;;;;16.70;8.85;;;8.00;99.90;;;;;;4816560;29;20051;-55
2023/03/16 02:13:02;;;;;;;19.25;9.52;;;8.00;99.90;;;;;;4807594;29;20410;-56
2023/03/16 02:15:31;;;;;;;17.33;9.07;;;8.10;99.90;;;;;;4811776;29;20068;-57
2023/03/16 02:17:59;;;;;;;18.77;8.88;;;8.10;99.90;;;;;;4836195;29;20053;-56
2023/03/16 02:20:49;;;;;;;19.25;9.73;;;8.10;99.90;;;;;;4812108;29;20046;-57
2023/03/16 02:23:19;;;;;;;22.60;9.45;;;8.10;99.90;;;;;;4810726;29;20046;-56
2023/03/16 02:25:54;;;;;;;19.70;9.68;;;8.10;99.90;;;;;;4821928;29;20395;-55
2023/03/16 02:28:54;;;;;;;20.92;9.73;;;8.10;99.90;;;;;;4826953;29;20054;-56
2023/03/16 02:31:22;;;;;;;17.83;9.57;;;8.10;99.90;;;;;;4820902;29;20121;-55
2023/03/16 02:33:52;;;;;;;19.52;9.73;;;8.20;99.90;;;;;;4803656;29;20046;-56
2023/03/16 02:36:20;;;;;;;19.77;10.23;;;8.10;99.90;;;;;;4820096;29;20065;-55
2023/03/16 02:38:48;;;;;;;20.52;10.05;;;8.20;99.90;;;;;;4828903;29;20046;-56
2023/03/16 02:41:19;;;;;;;19.52;9.38;;;8.20;99.90;;;;;;4807276;29;20058;-54
2023/03/16 02:44:04;;;;;;;19.20;9.98;;;8.20;99.90;;;;;;4803789;29;20509;-56
2023/03/16 02:46:36;;;;;;;18.52;8.90;;;8.20;99.90;;;;;;4816345;29;20047;-56
2023/03/16 02:49:28;;;;;;;19.20;8.55;;;8.30;99.90;;;;;;4806222;29;20051;-56
2023/03/16 02:51:56;;;;;;;19.10;8.77;;;8.30;99.90;;;;;;4822084;29;20050;-54
2023/03/16 02:54:24;;;;;;;19.88;9.15;;;8.30;99.90;;;;;;4821943;29;20059;-55
2023/03/16 02:56:52;;;;;;;18.23;9.13;;;8.30;99.90;;;;;;4821773;29;20056;-54
2023/03/16 02:59:21;;;;;;;19.35;9.10;;;8.30;99.90;;;;;;4806533;29;20062;-54
2023/03/16 03:01:49;;;;;;;23.98;9.18;;;8.30;99.90;;;;;;4821903;29;20054;-55
2023/03/16 03:04:16;;;;;;;21.40;8.73;;;8.30;99.90;;;;;;4821775;29;20038;-55
2023/03/16 03:06:44;;;;;;;18.83;8.07;;;8.40;99.90;;;;;;4821748;29;20054;-54
2023/03/16 03:09:12;;;;;;;21.52;9.43;;;8.40;99.90;;;;;;4810942;29;20046;-54
2023/03/16 03:11:40;;;;;;;17.52;7.57;;;8.40;99.90;;;;;;4821987;29;20050;-54
2023/03/16 03:14:08;;;;;;;18.98;8.38;;;8.40;99.90;;;;;;4813995;29;20423;-55
2023/03/16 03:16:38;;;;;;;19.45;8.95;;;8.50;99.90;;;;;;4814417;29;20054;-54
2023/03/16 03:19:06;;;;;;;15.35;8.07;;;8.50;99.90;;;;;;4804545;29;20411;-54
2023/03/16 03:21:37;;;;;;;19.10;7.63;;;8.50;99.90;;;;;;4819062;29;20046;-55
2023/03/16 03:24:07;;;;;;;15.65;7.35;;;8.50;99.90;;;;;;4821539;29;20518;-54
2023/03/16 03:26:36;;;;;;;17.80;6.72;;;8.50;99.90;;;;;;4820897;29;20053;-54
2023/03/16 03:29:07;;;;;;;23.17;6.97;;;8.60;99.90;;;;;;4821837;29;20068;-55
2023/03/16 03:31:36;;;;;;;16.00;6.75;;;8.60;99.90;;;;;;4821637;29;20403;-54
2023/03/16 03:34:05;;;;;;;15.82;6.07;;;8.60;99.90;;;;;;4811438;29;20058;-54
2023/03/16 03:36:35;;;;;;;19.13;7.63;;;8.60;99.90;;;;;;4814751;29;20047;-56
2023/03/16 03:39:03;;;;;;;11.52;5.65;;;8.70;99.90;;;;;;4802918;29;20047;-54
2023/03/16 03:41:33;;;;;;;13.48;6.28;;;8.60;99.90;;;;;;4815258;29;20050;-55
2023/03/16 03:44:03;;;;;;;14.88;5.45;;;8.70;99.90;;;;;;4803175;29;20055;-55
2023/03/16 03:46:33;;;;;;;11.80;6.40;;;8.60;99.90;;;;;;4815562;29;20043;-54
2023/03/16 03:49:04;;;;;;;12.80;5.63;;;8.70;99.90;;;;;;4789344;29;20058;-54
2023/03/16 03:51:34;;;;;;;10.93;4.88;;;8.70;99.90;;;;;;4803121;29;20050;-54
2023/03/16 03:54:05;;;;;;;12.65;5.65;;;8.70;99.90;;;;;;4810458;29;20046;-55
2023/03/16 03:56:51;;;;;;;11.73;6.13;;;8.70;99.90;;;;;;4811305;29;20047;-54
2023/03/16 03:59:19;;;;;;;9.15;5.32;;;8.70;99.90;;;;;;4803813;29;20058;-55
2023/03/16 04:02:19;;;;;;;13.68;6.45;;;8.70;99.90;;;;;;4803247;29;20385;-54
2023/03/16 04:04:52;;;;;;;11.10;5.35;;;8.80;99.90;;;;;;4806205;29;20050;-56
2023/03/16 04:07:20;;;;;;;8.95;5.10;;;8.80;99.90;;;;;;4822447;29;20046;-54
2023/03/16 04:09:50;;;;;;;;;;;8.80;99.90;;;;;;4818707;29;20490;-55
2023/03/16 04:12:29;;;;;;;12.38;5.38;;;8.80;99.90;;;;;;4820996;29;19932;-55
2023/03/16 04:14:57;;;;;;;9.52;4.78;;;8.80;99.90;;;;;;4820779;29;20066;-56
2023/03/16 04:17:27;;;;;;;11.55;5.10;;;8.80;99.90;;;;;;4838029;29;20054;-55
2023/03/16 04:19:58;;;;;;;7.95;3.97;;;8.80;99.90;;;;;;4839249;29;20061;-56
2023/03/16 04:22:29;;;;;;;9.20;4.63;;;8.80;99.90;;;;;;4839402;29;20466;-55
2023/03/16 04:24:56;;;;;;;8.32;4.00;;;8.90;99.90;;;;;;4836815;29;20046;-54
2023/03/16 04:27:26;;;;;;;;;;;8.90;99.90;;;;;;4802354;29;20485;-54
2023/03/16 04:29:57;;;;;;;10.43;4.07;;;8.90;99.90;;;;;;4804051;29;19933;-54
2023/03/16 04:32:26;;;;;;;10.48;4.18;;;8.90;99.90;;;;;;4802759;29;20527;-55
2023/03/16 04:34:55;;;;;;;10.45;3.65;;;8.80;99.90;;;;;;4804509;29;20066;-54
2023/03/16 04:37:33;;;;;;;9.18;3.83;;;8.90;99.90;;;;;;4823326;29;20058;-60
2023/03/16 04:40:09;;;;;;;13.63;4.43;;;8.90;99.90;;;;;;4824448;29;20046;-60
2023/03/16 04:42:38;;;;;;;13.70;3.88;;;8.90;99.90;;;;;;4823936;29;20061;-56
2023/03/16 04:45:08;;;;;;;6.00;3.25;;;8.90;99.90;;;;;;4823932;29;20416;-59
2023/03/16 04:47:36;;;;;;;7.75;3.40;;;8.90;99.90;;;;;;4842503;29;20058;-55
2023/03/16 04:50:06;;;;;;;7.63;3.20;;;8.90;99.90;;;;;;4816146;29;20043;-56
2023/03/16 04:52:34;;;;;;;7.85;3.42;;;8.90;99.90;;;;;;4805700;29;20102;-58
2023/03/16 04:55:02;;;;;;;7.22;3.75;;;8.90;99.90;;;;;;4819563;29;20662;-55
2023/03/16 04:57:31;;;;;;;6.30;3.03;;;8.90;99.90;;;;;;4819516;29;20051;-55
2023/03/16 05:00:08;;;;;;;7.93;3.10;;;8.90;99.90;;;;;;4805873;29;20043;-56
2023/03/16 05:02:40;;;;;;;7.28;3.58;;;8.90;99.90;;;;;;4819336;29;20054;-59
2023/03/16 05:05:08;;;;;;;7.00;3.03;;;9.00;99.90;;;;;;4823567;29;20050;-59
2023/03/16 05:07:40;;;;;;;8.52;3.20;;;9.00;99.90;;;;;;4823882;29;20050;-56
2023/03/16 05:10:10;;;;;;;5.60;2.92;;;9.00;99.90;;;;;;4823550;29;20518;-56
2023/03/16 05:12:39;;;;;;;7.30;3.05;;;9.00;99.90;;;;;;4823673;29;20542;-57
2023/03/16 05:15:08;;;;;;;7.18;3.20;;;9.00;99.90;;;;;;4808622;29;20062;-55
2023/03/16 05:17:40;;;;;;;5.38;2.88;;;8.90;99.90;;;;;;4823463;29;20051;-61
2023/03/16 05:20:11;;;;;;;5.97;3.35;;;9.00;99.90;;;;;;4823297;29;20053;-55
2023/03/16 05:22:47;;;;;;;6.20;3.25;;;9.00;99.90;;;;;;4823681;29;20059;-60
2023/03/16 05:25:22;;;;;;;4.63;3.28;;;9.00;99.90;;;;;;4823411;29;20055;-55
2023/03/16 05:27:53;;;;;;;10.52;4.65;;;8.90;99.90;;;;;;4822644;29;20061;-55
2023/03/16 05:30:30;;;;;;;6.80;3.03;;;9.00;99.90;;;;;;4823384;29;20054;-58
2023/03/16 05:33:01;;;;;;;5.20;2.95;;;9.00;99.90;;;;;;4823413;29;20042;-58
2023/03/16 05:35:29;;;;;;;4.25;2.88;;;9.00;99.90;;;;;;4824497;29;20492;-57
2023/03/16 05:38:02;;;;;;;4.72;2.25;;;9.00;99.90;;;;;;4823181;29;20062;-60
2023/03/16 05:40:32;;;;;;;10.02;3.47;;;8.90;99.90;;;;;;4816107;29;20051;-57
2023/03/16 05:43:10;;;;;;;5.65;2.65;;;8.90;99.90;;;;;;4805322;29;20629;-55
2023/03/16 05:45:43;;;;;;;4.22;2.30;;;8.90;99.90;;;;;;4813043;29;20052;-56
2023/03/16 05:48:14;;;;;;;4.90;2.00;;;8.90;99.90;;;;;;4814866;29;20047;-55
2023/03/16 05:50:49;;;;;;;5.80;3.08;;;8.80;99.90;;;;;;4819758;29;20055;-56
2023/03/16 05:53:22;;;;;;;2.67;1.98;;;8.90;99.90;;;;;;4819804;29;20492;-55
2023/03/16 05:55:53;;;;;;;5.43;1.98;;;8.80;99.90;;;;;;4819363;29;20053;-56
2023/03/16 05:58:21;;;;;;;5.53;1.52;;;8.80;99.90;;;;;;4822477;29;20042;-56
2023/03/16 06:00:54;;;;;;;4.50;1.70;;;8.70;99.90;;;;;;4818997;29;20050;-55
2023/03/16 06:03:35;;;;;;;3.25;1.50;;;8.80;99.90;;;;;;4809122;29;20515;-56
2023/03/16 06:06:04;;;;;;;2.20;1.48;;;8.80;99.90;;;;;;4800816;29;20483;-56
2023/03/16 06:08:40;;;;;;;6.93;1.45;;;8.80;99.90;;;;;;4809395;29;20655;-55
2023/03/16 06:11:11;;;;;;;5.68;1.52;;;8.80;99.90;;;;;;4799362;29;20056;-55
2023/03/16 06:13:40;;;;;;;2.40;1.20;;;8.70;99.90;;;;;;4829735;29;20062;-56
2023/03/16 06:16:10;;;;;;;2.60;1.00;;;8.70;99.90;;;;;;4826498;29;20061;-57
2023/03/16 06:18:38;;;;;;;1.10;1.00;;;8.70;99.90;;;;;;4816699;29;20042;-55
2023/03/16 06:21:06;;;;;;;3.83;1.23;;;8.70;99.90;;;;;;4816223;29;20513;-56
2023/03/16 06:23:35;;;;;;;4.40;1.25;;;8.70;99.90;;;;;;4828637;29;20662;-56
2023/03/16 06:26:04;;;;;;;5.20;1.27;;;8.70;99.90;;;;;;4832461;29;20435;-56
2023/03/16 06:28:35;;;;;;;7.22;1.73;;;8.70;99.90;;;;;;4813566;29;20558;-55
2023/03/16 06:31:03;;;;;;;8.38;1.23;;;8.80;99.90;;;;;;4834547;29;20056;-55
2023/03/16 06:33:33;;;;;;;5.65;1.70;;;8.70;99.90;;;;;;4799698;29;20177;-55
2023/03/16 06:36:05;;;;;;;5.72;1.17;;;8.70;99.90;;;;;;4814047;29;20076;-55
2023/03/16 06:38:37;;;;;;;8.70;1.58;;;8.80;99.90;;;;;;4828163;29;20058;-56
2023/03/16 06:41:11;;;;;;;6.18;1.95;;;;;;;;;;4833894;29;20042;-54
2023/03/16 06:43:39;;;;;;;11.93;2.80;;;8.80;99.90;;;;;;4821776;29;20050;-56
2023/03/16 06:46:07;;;;;;;10.07;2.95;;;8.80;99.90;;;;;;4810133;29;20395;-57
2023/03/16 06:48:35;;;;;;;8.55;2.00;;;8.80;99.90;;;;;;4817038;29;20246;-57
2023/03/16 06:51:06;;;;;;;6.38;1.55;;;8.80;99.90;;;;;;4800495;29;20050;-56
2023/03/16 06:53:35;;;;;;;7.78;1.45;;;9.70;99.90;;;;;;4831562;29;20046;-59
2023/03/16 06:56:03;;;;;;;3.80;1.15;;;8.80;99.90;;;;;;4830434;29;20055;-55
2023/03/16 06:58:36;;;;;;;10.07;1.67;;;8.90;99.90;;;;;;4831107;29;20049;-60
2023/03/16 07:01:04;;;;;;;7.63;1.60;;;8.80;99.90;;;;;;4836099;29;20509;-59
2023/03/16 07:03:32;;;;;;;6.63;1.48;;;8.80;99.90;;;;;;4819136;29;20055;-54
2023/03/16 07:06:12;;;;;;;14.40;1.83;;;8.90;99.90;;;;;;4796330;29;20059;-62
2023/03/16 07:08:41;;;;;;;8.67;1.60;;;8.90;99.90;;;;;;4821495;29;20213;-56
2023/03/16 07:11:10;;;;;;;6.78;1.70;;;8.80;99.90;;;;;;4799940;29;20050;-55
2023/03/16 07:13:38;;;;;;;9.63;1.67;;;8.90;99.90;;;;;;4826997;29;20053;-56
2023/03/16 07:16:06;;;;;;;7.85;1.40;;;8.90;99.90;;;;;;4834556;29;20054;-55
2023/03/16 07:18:36;;;;;;;7.95;1.85;;;8.90;99.90;;;;;;4818227;29;20085;-55
2023/03/16 07:21:06;;;;;;;8.55;1.80;;;8.80;99.90;;;;;;4815394;29;20051;-57
2023/03/16 07:23:34;;;;;;;3.47;1.40;;;8.80;99.90;;;;;;4832289;29;20063;-55
2023/03/16 07:26:06;;;;;;;9.82;2.05;;;8.90;99.90;;;;;;4824808;29;20046;-55
2023/03/16 07:28:38;;;;;;;6.88;1.95;;;8.80;99.90;;;;;;4830628;29;20533;-54
2023/03/16 07:31:08;;;;;;;11.40;2.63;;;8.80;99.90;;;;;;4836470;29;20049;-54
2023/03/16 07:33:39;;;;;;;4.93;1.52;;;8.90;99.90;;;;;;4816643;29;20046;-54
2023/03/16 07:36:11;;;;;;;6.57;1.48;;;8.80;99.90;;;;;;4819436;29;20050;-55
2023/03/16 07:38:44;;;;;;;8.35;1.60;;;8.90;99.90;;;;;;4831438;29;20057;-55
2023/03/16 07:41:13;;;;;;;11.95;1.85;;;8.90;99.90;;;;;;4836605;29;20046;-55
2023/03/16 07:43:41;;;;;;;6.00;2.15;;;8.90;99.90;;;;;;4835960;29;20054;-55
2023/03/16 07:46:13;;;;;;;7.45;2.00;;;8.90;99.90;;;;;;4826248;29;20058;-56
2023/03/16 07:48:42;;;;;;;6.75;2.17;;;8.90;99.90;;;;;;4824312;29;20046;-56
2023/03/16 07:51:14;;;;;;;7.10;2.47;;;8.90;99.90;;;;;;4804149;29;20057;-56
2023/03/16 07:53:46;;;;;;;8.52;2.47;;;8.90;99.90;;;;;;4829799;29;20050;-57
2023/03/16 07:56:27;;;;;;;6.00;2.63;;;8.90;99.90;;;;;;4812665;29;20039;-59
2023/03/16 07:59:12;;;;;;;8.48;3.20;;;9.00;99.90;;;;;;4831598;29;20050;-55
2023/03/16 08:01:42;;;;;;;9.80;2.65;;;9.00;99.90;;;;;;4814031;29;20046;-56
2023/03/16 08:04:11;;;;;;;10.80;2.45;;;9.00;99.90;;;;;;4821928;29;20050;-55
2023/03/16 08:06:41;;;;;;;3.80;1.85;;;11.40;99.90;;;;;;4799975;29;20042;-55
2023/03/16 08:09:08;;;;;;;3.50;1.90;;;9.10;99.90;;;;;;4818296;29;20487;-55
2023/03/16 08:11:40;;;;;;;7.60;2.28;;;9.10;99.90;;;;;;4818892;29;20491;-55
2023/03/16 08:14:07;;;;;;;4.75;1.80;;;9.20;99.90;;;;;;4838073;29;20046;-55
2023/03/16 08:17:02;;;;;;;8.00;2.30;;;9.20;99.90;;;;;;4840161;29;20054;-56
2023/03/16 08:19:31;;;;;;;5.28;1.40;;;9.20;99.90;;;;;;4828349;29;20113;-62
2023/03/16 08:22:00;;;;;;;4.60;1.30;;;9.20;99.90;;;;;;4818895;29;20047;-55
2023/03/16 08:24:39;;;;;;;5.63;1.88;;;9.30;99.90;;;;;;4813661;29;20415;-60
2023/03/16 08:27:09;;;;;;;4.07;1.30;;;9.30;99.90;;;;;;4807978;29;20054;-56
2023/03/16 08:29:41;;;;;;;5.20;1.70;;;9.20;99.90;;;;;;4834968;29;20054;-61
2023/03/16 08:32:13;;;;;;;4.85;1.70;;;9.30;99.90;;;;;;4823294;29;21627;-55
2023/03/16 08:34:44;;;;;;;5.82;1.80;;;9.30;99.90;;;;;;4816894;29;20055;-57
2023/03/16 08:37:13;;;;;;;4.05;1.85;;;9.30;99.90;;;;;;4820909;29;20436;-55
2023/03/16 08:39:42;;;;;;;4.57;1.92;;;9.30;99.90;;;;;;4835957;29;20057;-55
2023/03/16 08:42:20;;;;;;;4.68;2.28;;;9.40;99.90;;;;;;4825049;29;20061;-56
2023/03/16 08:44:55;;;;;;;3.20;1.90;;;9.40;99.90;;;;;;4840618;29;20056;-55
2023/03/16 08:47:26;;;;;;;3.28;1.52;;;9.40;99.90;;;;;;4837461;29;20056;-60
2023/03/16 08:49:54;;;;;;;3.92;1.25;;;9.40;99.90;;;;;;4820050;29;20042;-57
2023/03/16 08:52:22;;;;;;;3.83;1.60;;;9.40;99.90;;;;;;4825157;29;20069;-56
2023/03/16 08:54:50;;;;;;;8.60;1.65;;;9.50;99.90;;;;;;4840034;29;20045;-57
2023/03/16 08:57:34;;;;;;;9.52;1.70;;;9.50;99.90;;;;;;4840152;29;20054;-56
2023/03/16 09:00:07;;;;;;;4.22;2.00;;;9.50;99.90;;;;;;4833065;29;20053;-55
2023/03/16 09:02:37;;;;;;;6.15;1.80;;;9.50;99.90;;;;;;4826601;29;20057;-56
2023/03/16 09:05:08;;;;;;;7.05;2.03;;;9.50;99.90;;;;;;4815335;29;20050;-54
2023/03/16 09:07:36;;;;;;;7.07;1.67;;;9.50;99.90;;;;;;4812439;29;20058;-55
2023/03/16 09:10:17;;;;;;;5.47;1.17;;;9.50;99.90;;;;;;4830124;29;20061;-55
2023/03/16 09:12:45;;;;;;;2.13;1.40;;;9.50;99.90;;;;;;4827446;29;20270;-55
2023/03/16 09:15:15;;;;;;;4.13;1.25;;;9.50;99.90;;;;;;4838764;29;20054;-55
2023/03/16 09:17:44;;;;;;;7.28;1.40;;;9.60;99.90;;;;;;4839618;29;20046;-56
2023/03/16 09:20:14;;;;;;;5.67;1.63;;;9.60;99.90;;;;;;4826242;29;20050;-55
2023/03/16 09:22:49;;;;;;;9.38;1.67;;;9.60;99.90;;;;;;4826892;29;20296;-58
2023/03/16 09:25:17;;;;;;;4.15;1.38;;;9.60;99.90;;;;;;4839770;29;20073;-56
2023/03/16 09:27:45;;;;;;;3.88;1.23;;;9.70;99.90;;;;;;4839267;29;20054;-58
2023/03/16 09:30:14;;;;;;;6.35;1.60;;;9.70;99.90;;;;;;4831786;29;20055;-59
2023/03/16 09:32:41;;;;;;;6.18;1.85;;;9.70;99.90;;;;;;4825723;29;20046;-55
2023/03/16 09:35:19;;;;;;;9.07;2.25;;;9.80;99.90;;;;;;4821010;29;20411;-60
2023/03/16 09:37:47;;;;;;;6.60;1.60;;;9.80;99.90;;;;;;4832464;29;20054;-61
2023/03/16 09:40:34;;;;;;;9.23;1.55;;;9.90;99.90;;;;;;4829374;29;20443;-55
2023/03/16 09:43:42;;;;;;;8.25;1.50;;;9.90;99.90;;;;;;4829470;29;20518;-62
2023/03/16 09:46:23;;;;;;;4.13;0.90;;;9.90;99.90;;;;;;4817491;29;20062;-56
2023/03/16 09:48:51;;;;;;;8.98;1.58;;;10.00;99.90;;;;;;4820703;29;20050;-58
2023/03/16 09:51:52;;;;;;;4.05;1.15;;;10.50;99.90;;;;;;4818801;29;20065;-56
2023/03/16 09:54:31;;;;;;;8.80;1.50;;;10.10;99.90;;;;;;4837204;29;20053;-56
2023/03/16 09:57:02;;;;;;;4.25;1.40;;;10.10;99.90;;;;;;4803876;29;20047;-57
2023/03/16 09:59:29;;;;;;;5.90;1.67;;;10.10;99.90;;;;;;4810222;29;20081;-57
2023/03/16 10:02:37;;;;;;;6.35;1.20;;;10.20;99.90;;;;;;4820045;29;20510;-57
2023/03/16 10:05:13;;;;;;;6.40;1.08;;;10.20;99.90;;;;;;4822123;29;20507;-58
2023/03/16 10:07:49;;;;;;;11.25;1.50;;;10.20;99.90;;;;;;4811836;29;20084;-56
2023/03/16 10:10:28;;;;;;;7.78;1.33;;;10.20;99.90;;;;;;4821011;29;20046;-57
2023/03/16 10:12:59;;;;;;;6.72;1.73;;;10.30;99.90;;;;;;4825627;29;20058;-57
2023/03/16 10:15:34;;;;;;;6.60;1.38;;;10.20;99.90;;;;;;4838869;29;20058;-57
2023/03/16 10:18:28;;;;;;;4.20;1.20;;;10.30;99.90;;;;;;4838452;29;20057;-56
2023/03/16 10:20:57;;;;;;;11.13;2.05;;;10.20;99.90;;;;;;4823491;29;20059;-56
2023/03/16 10:23:25;;;;;;;9.90;1.58;;;10.30;99.90;;;;;;4829748;29;20050;-57
2023/03/16 10:25:54;;;;;;;8.07;1.58;;;10.30;99.90;;;;;;4834250;29;20087;-57
2023/03/16 10:28:25;;;;;;;9.63;1.60;;;10.40;99.90;;;;;;4822054;29;20054;-57
2023/03/16 10:30:58;;;;;;;8.27;1.27;;;10.40;99.90;;;;;;4814618;29;20057;-56
2023/03/16 10:33:28;;;;;;;4.22;1.25;;;10.50;99.90;;;;;;4831000;29;20057;-57
2023/03/16 10:36:26;;;;;;;3.30;1.23;;;10.40;99.90;;;;;;4812186;29;20385;-57
2023/03/16 10:39:03;;;;;;;10.65;1.30;;;10.50;99.90;;;;;;4830464;29;20513;-59
2023/03/16 10:41:34;;;;;;;7.78;0.95;;;10.60;99.90;;;;;;4822024;29;20545;-57
2023/03/16 10:44:20;;;;;;;8.70;1.38;;;10.60;99.90;;;;;;4813289;29;20050;-58
2023/03/16 10:46:56;;;;;;;7.35;2.10;;;10.60;99.90;;;;;;4816357;29;20051;-57
2023/03/16 10:49:28;;;;;;;6.18;1.27;;;10.60;99.90;;;;;;4849888;29;20058;-57
2023/03/16 10:51:59;;;;;;;5.57;1.27;;;10.70;99.90;;;;;;4814189;29;20039;-59
2023/03/16 10:54:34;;;;;;;8.38;1.88;;;10.70;99.90;;;;;;4800417;29;20059;-61
2023/03/16 10:57:24;;;;;;;6.68;1.10;;;10.80;99.90;;;;;;4803996;29;20047;-57
2023/03/16 10:59:58;;;;;;;4.80;1.20;;;10.90;99.90;;;;;;4830395;29;20047;-57
2023/03/16 11:02:34;;;;;;;10.52;2.15;;;11.10;99.90;;;;;;4808644;29;20062;-58
2023/03/16 11:05:24;;;;;;;6.70;1.60;;;11.20;99.90;;;;;;4828645;29;20050;-59
2023/03/16 11:08:19;;;;;;;10.23;2.55;;;11.40;99.90;;;;;;4819801;29;20043;-57
2023/03/16 11:10:58;;;;;;;8.10;1.42;;;11.40;99.90;;;;;;4820255;29;20066;-59
2023/03/16 11:13:37;;;;;;;8.18;1.40;;;11.40;99.90;;;;;;4828673;29;20061;-58
2023/03/16 11:16:25;;;;;;;3.63;1.45;;;11.30;99.90;;;;;;4834750;29;20054;-56
2023/03/16 11:18:59;;;;;;;6.80;1.40;;;11.30;99.90;;;;;;4828452;29;20109;-57
2023/03/16 11:21:54;;;;;;;5.45;1.10;;;11.20;99.90;;;;;;4819724;29;20069;-56
2023/03/16 11:24:48;;;;;;;7.13;2.50;;;11.10;99.90;;;;;;4832310;29;20051;-58
2023/03/16 11:27:30;;;;;;;4.07;0.90;;;11.10;99.90;;;;;;4812815;29;20110;-56
2023/03/16 11:30:28;;;;;;;3.67;1.37;;;11.00;99.90;;;;;;4824425;29;20042;-58
2023/03/16 11:32:59;;;;;;;8.15;1.67;;;11.10;99.90;;;;;;4817227;29;20051;-58
2023/03/16 11:35:33;;;;;;;18.77;2.55;;;11.10;99.90;;;;;;4809261;29;20057;-60
2023/03/16 11:38:33;;;;;;;6.38;1.45;;;11.20;99.90;;;;;;4816597;29;20046;-58
2023/03/16 11:41:10;;;;;;;7.07;1.65;;;11.30;99.90;;;;;;4808784;29;20050;-56
2023/03/16 11:43:49;;;;;;;3.75;1.38;;;11.40;99.90;;;;;;4823817;29;20053;-56
2023/03/16 11:46:29;;;;;;;4.82;1.30;;;11.70;99.90;;;;;;4819749;29;20058;-57
2023/03/16 11:49:18;;;;;;;4.28;0.80;;;11.80;99.90;;;;;;4827953;29;20494;-60
2023/03/16 11:52:02;;;;;;;6.15;1.27;;;11.80;99.90;;;;;;4804106;29;20069;-60
2023/03/16 11:54:47;;;;;;;3.25;1.13;;;11.80;99.90;;;;;;4801170;29;20392;-57
2023/03/16 11:57:52;;;;;;;5.88;1.25;;;11.80;99.90;;;;;;4803940;29;20051;-58
2023/03/16 12:00:51;;;;;;;3.53;1.30;;;11.90;99.90;;;;;;4833244;29;20483;-59
2023/03/16 12:03:44;;;;;;;6.53;1.02;;;11.90;99.90;;;;;;4828188;29;20050;-57
2023/03/16 12:06:37;;;;;;;2.58;0.90;;;11.90;99.90;;;;;;4817656;29;20214;-57
2023/03/16 12:09:09;;;;;;;7.97;1.17;;;11.90;99.90;;;;;;4830830;29;20057;-57
2023/03/16 12:12:07;;;;;;;2.50;1.05;;;11.80;99.90;;;;;;4824852;29;20062;-57
2023/03/16 12:14:43;;;;;;;6.55;1.08;;;11.70;99.90;;;;;;4818996;29;20491;-58
2023/03/16 12:17:16;;;;;;;6.15;1.27;;;11.80;99.90;;;;;;4820810;29;20051;-56
2023/03/16 12:20:06;;;;;;;3.63;1.27;;;11.80;99.90;;;;;;4837183;29;20046;-58
2023/03/16 12:22:48;;;;;;;9.05;1.67;;;11.80;99.90;;;;;;4822584;29;20057;-57
2023/03/16 12:25:31;;;;;;;14.88;1.70;;;11.80;99.90;;;;;;4835988;29;20050;-58
2023/03/16 12:28:15;;;;;;;4.53;1.30;;;11.70;99.90;;;;;;4833549;29;20050;-58
2023/03/16 12:31:04;;;;;;;6.93;1.05;;;11.70;99.90;;;;;;4829484;29;20062;-61
2023/03/16 12:33:51;;;;;;;4.95;1.17;;;11.70;99.90;;;;;;4829571;29;20058;-57
2023/03/16 12:36:38;;;;;;;5.07;1.15;;;11.60;99.90;;;;;;4819576;29;20055;-58
2023/03/16 12:39:34;;;;;;;3.03;1.05;;;11.60;99.90;;;;;;4830828;29;20065;-57
2023/03/16 12:42:14;;;;;;;4.32;1.02;;;11.60;99.90;;;;;;4823207;29;20042;-58
2023/03/16 12:45:01;;;;;;;4.80;1.27;;;11.70;99.90;;;;;;4800611;29;20055;-60
2023/03/16 12:47:56;;;;;;;3.65;1.00;;;11.70;99.90;;;;;;4821131;29;20050;-58
2023/03/16 12:50:24;;;;;;;1.90;0.80;;;11.80;99.90;;;;;;4834560;29;20061;-59
2023/03/16 12:52:53;;;;;;;2.22;0.85;;;11.80;99.90;;;;;;4812427;29;20410;-57
2023/03/16 12:55:38;;;;;;;2.40;0.73;;;11.80;99.90;;;;;;4837018;29;20054;-58
2023/03/16 12:58:07;;;;;;;3.72;0.82;;;11.70;99.90;;;;;;4837368;29;20380;-58
2023/03/16 13:00:39;;;;;;;5.05;0.88;;;11.70;99.90;;;;;;4837835;29;20252;-58
2023/03/16 13:03:18;;;;;;;2.20;0.60;;;11.70;99.90;;;;;;4829408;29;20046;-58
2023/03/16 13:05:54;;;;;;;0.93;0.50;;;11.70;99.90;;;;;;4836438;29;20825;-57
2023/03/16 13:08:22;;;;;;;3.15;0.60;;;11.70;99.90;;;;;;4830226;29;20054;-57
2023/03/16 13:10:59;;;;;;;2.30;1.00;;;11.60;99.90;;;;;;4837267;29;20050;-57
2023/03/16 13:13:27;;;;;;;2.45;0.88;;;11.60;99.90;;;;;;4831979;29;20450;-57
2023/03/16 13:16:26;;;;;;;3.78;0.90;;;11.60;99.90;;;;;;4836815;29;20053;-57
2023/03/16 13:18:54;;;;;;;;;;;11.60;99.90;;;;;;4839884;29;20065;-58
2023/03/16 13:21:39;;;;;;;4.05;0.52;;;11.50;99.90;;;;;;4826774;29;19925;-57
2023/03/16 13:24:20;;;;;;;2.03;0.85;;;11.50;99.90;;;;;;4833971;29;20050;-58
2023/03/16 13:26:53;;;;;;;3.58;1.08;;;11.50;99.90;;;;;;4840132;29;20062;-58
2023/03/16 13:29:25;;;;;;;0.95;0.70;;;11.50;99.90;;;;;;4839440;29;20053;-58